Time;durP1;ratioP1;P1;durP2;ratioP2;P2;SDS_P1;SDS_P2;PMS_P1;PMS_P2;Temp;Humidity;BMP_temperature;BMP_pressure;BME280_temperature;BME280_humidity;BME280_pressure;Samples;Min_cycle;Max_cycle;Signal;HPM_P1;HPM_P2
2022/06/24 00:00:06;;;;;;;11.23;5.45;;;25.90;58.30;;;;;;4923935;28;20042;-91
2022/06/24 00:02:32;;;;;;;8.07;5.60;;;25.90;57.80;;;;;;4920748;28;20035;-90
2022/06/24 00:05:00;;;;;;;8.48;4.68;;;25.90;59.20;;;;;;4921565;28;20053;-92
2022/06/24 00:07:25;;;;;;;9.25;6.55;;;25.90;58.80;;;;;;4918707;28;20034;-92
2022/06/24 00:09:51;;;;;;;14.02;6.78;;;25.60;56.70;;;;;;4923913;28;20300;-92
2022/06/24 00:12:18;;;;;;;8.38;5.57;;;25.50;56.50;;;;;;4925111;28;20042;-92
2022/06/24 00:14:47;;;;;;;11.73;5.85;;;25.60;59.10;;;;;;4920344;28;20062;-91
2022/06/24 00:17:14;;;;;;;10.25;7.13;;;25.30;56.30;;;;;;4918759;28;20031;-91
2022/06/24 00:19:59;;;;;;;12.93;6.88;;;25.20;56.30;;;;;;4925958;28;20042;-92
2022/06/24 00:22:27;;;;;;;11.25;6.55;;;25.00;58.00;;;;;;4938206;28;20483;-91
2022/06/24 00:25:13;;;;;;;7.47;4.80;;;25.00;63.10;;;;;;4951442;28;20033;-91
2022/06/24 00:27:39;;;;;;;11.77;6.22;;;25.10;58.70;;;;;;4940241;28;20034;-92
2022/06/24 00:30:15;;;;;;;14.30;6.45;;;25.20;57.70;;;;;;4925673;28;20031;-92
2022/06/24 00:32:41;;;;;;;10.38;5.85;;;25.10;56.60;;;;;;4924687;28;20030;-92
2022/06/24 00:35:16;;;;;;;6.10;4.93;;;25.00;56.60;;;;;;4919258;28;20039;-92
2022/06/24 00:37:43;;;;;;;8.45;5.20;;;25.10;56.40;;;;;;4918449;28;20027;-92
2022/06/24 00:40:11;;;;;;;9.95;5.97;;;25.20;60.80;;;;;;4925043;28;20103;-92
2022/06/24 00:42:41;;;;;;;7.22;5.25;;;25.10;57.60;;;;;;4951673;28;20018;-91
2022/06/24 00:45:26;;;;;;;12.65;6.13;;;25.50;59.50;;;;;;4928274;28;20038;-92
2022/06/24 00:47:52;;;;;;;8.98;5.90;;;25.40;60.80;;;;;;4950810;28;20545;-91
2022/06/24 00:50:25;;;;;;;12.55;4.80;;;25.50;60.00;;;;;;4914049;28;20043;-93
2022/06/24 00:52:52;;;;;;;10.60;5.43;;;25.40;62.00;;;;;;4951099;28;20125;-92
2022/06/24 00:55:31;;;;;;;7.65;5.30;;;25.20;64.00;;;;;;4931074;28;20042;-95
2022/06/24 00:58:00;;;;;;;12.30;5.85;;;25.30;63.00;;;;;;4931424;28;20090;-90
2022/06/24 01:00:29;;;;;;;12.57;5.32;;;25.30;63.40;;;;;;4914414;28;20372;-92
2022/06/24 01:03:04;;;;;;;9.85;5.55;;;25.20;64.20;;;;;;4918726;28;20030;-91
2022/06/24 01:05:31;;;;;;;10.35;5.88;;;25.30;66.10;;;;;;4925466;28;20394;-89
2022/06/24 01:07:58;;;;;;;9.00;4.47;;;25.20;65.80;;;;;;4925462;28;20039;-91
2022/06/24 01:10:23;;;;;;;9.13;4.78;;;25.40;65.90;;;;;;4922029;28;20507;-93
2022/06/24 01:12:49;;;;;;;5.43;4.80;;;25.30;66.60;;;;;;4921435;28;20035;-89
2022/06/24 01:15:14;;;;;;;11.38;5.63;;;25.30;66.50;;;;;;4913446;28;20035;-89
2022/06/24 01:17:41;;;;;;;8.00;5.10;;;25.20;68.00;;;;;;4933799;28;20031;-89
2022/06/24 01:20:10;;;;;;;8.02;4.82;;;25.20;66.70;;;;;;4918200;28;20070;-90
2022/06/24 01:22:36;;;;;;;10.30;4.97;;;25.30;66.70;;;;;;4923274;28;20027;-88
2022/06/24 01:25:02;;;;;;;8.35;4.55;;;25.30;68.00;;;;;;4920473;28;20045;-89
2022/06/24 01:27:28;;;;;;;8.63;5.07;;;25.10;68.30;;;;;;4910379;28;20395;-89
2022/06/24 01:29:53;;;;;;;10.30;6.30;;;25.10;69.00;;;;;;4936950;28;20046;-91
2022/06/24 01:32:20;;;;;;;12.48;5.60;;;25.00;69.60;;;;;;4914152;28;20036;-92
2022/06/24 01:34:46;;;;;;;10.82;4.82;;;25.10;70.00;;;;;;4917847;28;20042;-92
2022/06/24 01:37:11;;;;;;;10.73;4.75;;;24.90;70.90;;;;;;4920690;28;20038;-90
2022/06/24 01:39:38;;;;;;;8.23;5.20;;;24.90;71.50;;;;;;4916979;28;20049;-93
2022/06/24 01:42:05;;;;;;;8.15;4.72;;;24.90;71.60;;;;;;4921289;28;20087;-91
2022/06/24 01:44:30;;;;;;;10.48;4.90;;;24.70;72.00;;;;;;4916311;28;20051;-91
2022/06/24 01:46:56;;;;;;;7.25;4.35;;;24.70;72.70;;;;;;4939266;28;20499;-90
2022/06/24 01:49:22;;;;;;;11.65;6.07;;;24.60;72.90;;;;;;4937773;28;20027;-92
2022/06/24 01:51:49;;;;;;;11.18;5.47;;;24.60;73.00;;;;;;4921714;28;20093;-90
2022/06/24 01:54:15;;;;;;;13.90;4.97;;;24.60;72.90;;;;;;4934932;28;20032;-90
2022/06/24 01:56:40;;;;;;;8.65;4.82;;;24.40;73.20;;;;;;4919455;28;20616;-89
2022/06/24 01:59:06;;;;;;;12.50;5.38;;;24.40;72.90;;;;;;4924299;28;20534;-88
2022/06/24 02:01:32;;;;;;;9.25;5.57;;;24.20;74.30;;;;;;4915307;28;20172;-87
2022/06/24 02:03:59;;;;;;;4.55;3.53;;;24.30;76.00;;;;;;4920844;28;20030;-90
2022/06/24 02:06:24;;;;;;;10.32;5.00;;;24.10;75.80;;;;;;4916633;28;20491;-87
2022/06/24 02:08:51;;;;;;;11.25;4.88;;;24.20;76.30;;;;;;4920683;28;20077;-89
2022/06/24 02:14:02;;;;;;;10.77;4.65;;;24.20;76.20;;;;;;4936625;28;20560;-87
2022/06/24 02:16:28;;;;;;;6.65;4.18;;;24.10;76.10;;;;;;4917714;28;20039;-89
2022/06/24 02:18:54;;;;;;;9.57;4.75;;;24.00;75.90;;;;;;4916544;28;20089;-88
2022/06/24 02:21:22;;;;;;;11.05;4.28;;;24.10;76.00;;;;;;4910459;28;20048;-89
2022/06/24 02:23:47;;;;;;;7.88;3.28;;;24.00;76.80;;;;;;4909618;28;20067;-88
2022/06/24 02:26:13;;;;;;;9.20;3.90;;;23.90;78.10;;;;;;4929715;28;20062;-88
2022/06/24 02:28:38;;;;;;;9.30;4.50;;;24.00;77.40;;;;;;4914460;28;20495;-88
2022/06/24 02:31:05;;;;;;;11.38;4.38;;;24.00;77.40;;;;;;4911907;28;20035;-87
2022/06/24 02:33:31;;;;;;;8.00;4.65;;;24.00;76.70;;;;;;4917961;28;20039;-87
2022/06/24 02:35:57;;;;;;;8.60;3.92;;;23.90;77.10;;;;;;4934750;28;20039;-88
2022/06/24 02:38:22;;;;;;;8.45;4.22;;;23.90;77.20;;;;;;4909090;28;20057;-88
2022/06/24 02:40:48;;;;;;;6.82;4.30;;;23.80;76.90;;;;;;4913667;28;20032;-88
2022/06/24 02:43:46;;;;;;;7.55;3.75;;;23.80;77.30;;;;;;4915818;28;20143;-87
2022/06/24 02:46:13;;;;;;;8.57;3.90;;;23.70;77.50;;;;;;4887359;28;20031;-89
2022/06/24 02:48:41;;;;;;;7.43;3.92;;;23.80;78.20;;;;;;4915166;28;20043;-89
2022/06/24 02:51:08;;;;;;;10.35;5.22;;;23.70;77.70;;;;;;4917689;28;20038;-88
2022/06/24 02:53:34;;;;;;;8.68;4.00;;;23.60;78.30;;;;;;4913320;28;20368;-88
2022/06/24 02:56:07;;;;;;;11.15;4.63;;;23.70;79.80;;;;;;4926579;28;20483;-89
2022/06/24 02:58:33;;;;;;;10.35;4.28;;;23.50;79.60;;;;;;4929781;28;20184;-88
2022/06/24 03:00:59;;;;;;;7.82;3.35;;;23.50;80.90;;;;;;4911161;28;20118;-87
2022/06/24 03:03:25;;;;;;;5.95;3.35;;;23.50;79.80;;;;;;4911437;28;20030;-90
2022/06/24 03:05:53;;;;;;;5.03;4.00;;;23.50;81.20;;;;;;4918998;28;21538;-88
2022/06/24 03:08:19;;;;;;;8.85;4.45;;;23.50;81.00;;;;;;4916059;28;20099;-88
2022/06/24 03:10:45;;;;;;;4.15;3.30;;;23.40;81.70;;;;;;4918302;28;20037;-89
2022/06/24 03:13:11;;;;;;;5.70;3.60;;;23.40;81.70;;;;;;4918468;28;20030;-90
2022/06/24 03:15:36;;;;;;;10.55;4.65;;;23.60;81.60;;;;;;4912373;28;20451;-90
2022/06/24 03:18:02;;;;;;;7.70;3.50;;;23.60;84.10;;;;;;4919814;28;20034;-87
2022/06/24 03:20:28;;;;;;;9.80;4.03;;;23.40;82.50;;;;;;4909750;28;20135;-89
2022/06/24 03:22:56;;;;;;;4.72;3.47;;;23.40;84.40;;;;;;4914027;28;20033;-89
2022/06/24 03:25:22;;;;;;;5.90;3.45;;;23.30;86.30;;;;;;4933774;28;20538;-86
2022/06/24 03:27:48;;;;;;;8.02;4.57;;;23.40;84.60;;;;;;4916342;28;20122;-88
2022/06/24 03:30:15;;;;;;;8.32;3.92;;;23.30;84.60;;;;;;4916990;28;20371;-88
2022/06/24 03:32:41;;;;;;;7.95;3.50;;;23.40;86.40;;;;;;4915677;28;20487;-89
2022/06/24 03:35:08;;;;;;;6.05;3.83;;;23.50;86.80;;;;;;4932478;28;20118;-86
2022/06/24 03:37:33;;;;;;;10.30;4.45;;;23.30;86.10;;;;;;4921397;28;20088;-87
2022/06/24 03:39:59;;;;;;;6.25;3.42;;;23.30;87.20;;;;;;4919982;28;20035;-88
2022/06/24 03:42:25;;;;;;;5.72;3.53;;;23.40;87.80;;;;;;4914595;28;20047;-90
2022/06/24 03:44:50;;;;;;;6.82;4.28;;;23.30;89.30;;;;;;4916550;28;20038;-87
2022/06/24 03:47:16;;;;;;;8.48;3.80;;;23.30;90.30;;;;;;4916666;28;20487;-88
2022/06/24 03:49:42;;;;;;;10.23;3.50;;;23.00;88.30;;;;;;4912816;28;20087;-89
2022/06/24 03:52:07;;;;;;;7.00;3.72;;;23.10;90.00;;;;;;4917757;28;20035;-87
2022/06/24 03:54:33;;;;;;;7.45;3.63;;;22.90;87.40;;;;;;4908811;28;20373;-86
2022/06/24 03:56:59;;;;;;;5.85;3.17;;;22.80;89.50;;;;;;4936237;28;20059;-88
2022/06/24 03:59:24;;;;;;;7.50;3.90;;;22.90;90.10;;;;;;4914816;28;20086;-88
2022/06/24 04:01:50;;;;;;;3.72;3.05;;;22.70;86.10;;;;;;4909285;28;20027;-87
2022/06/24 04:04:15;;;;;;;7.78;3.58;;;22.60;88.80;;;;;;4915406;28;20043;-87
2022/06/24 04:06:41;;;;;;;5.68;3.10;;;22.60;90.00;;;;;;4923981;28;20039;-88
2022/06/24 04:09:07;;;;;;;9.68;3.97;;;22.70;90.60;;;;;;4915418;28;20544;-87
2022/06/24 04:11:32;;;;;;;4.97;3.00;;;22.50;88.40;;;;;;4925601;28;20024;-88
2022/06/24 04:14:01;;;;;;;6.07;2.88;;;22.30;88.20;;;;;;4919035;28;20147;-87
2022/06/24 04:16:27;;;;;;;4.60;3.00;;;22.60;91.20;;;;;;4928223;28;20035;-87
2022/06/24 04:18:53;;;;;;;7.95;2.95;;;22.70;91.00;;;;;;4914188;28;20031;-87
2022/06/24 04:21:19;;;;;;;4.80;2.90;;;22.40;90.50;;;;;;4912807;28;20057;-87
2022/06/24 04:23:44;;;;;;;6.70;3.17;;;22.30;90.10;;;;;;4913108;28;20031;-88
2022/06/24 04:26:10;;;;;;;4.68;2.95;;;22.10;89.30;;;;;;4912294;28;20063;-86
2022/06/24 04:28:36;;;;;;;6.30;2.97;;;21.90;88.50;;;;;;4916699;28;20035;-89
2022/06/24 04:31:02;;;;;;;6.03;3.33;;;21.90;89.80;;;;;;4930485;28;20035;-87
2022/06/24 04:33:28;;;;;;;3.38;2.63;;;22.00;91.20;;;;;;4915840;28;20101;-87
2022/06/24 04:35:53;;;;;;;8.15;4.97;;;22.10;92.10;;;;;;4915016;28;20170;-87
2022/06/24 04:38:19;;;;;;;6.05;4.15;;;22.00;93.20;;;;;;4926089;28;20036;-87
2022/06/24 04:40:45;;;;;;;7.50;3.35;;;22.00;92.60;;;;;;4929992;28;20085;-87
2022/06/24 04:43:10;;;;;;;5.45;3.20;;;22.00;93.50;;;;;;4914588;28;20042;-90
2022/06/24 04:45:36;;;;;;;4.82;3.95;;;21.90;92.50;;;;;;4915559;28;20027;-89
2022/06/24 04:48:02;;;;;;;4.93;2.83;;;22.10;93.00;;;;;;4925801;28;20038;-88
2022/06/24 04:50:28;;;;;;;7.25;3.90;;;21.90;93.30;;;;;;4923903;28;20031;-87
2022/06/24 04:52:54;;;;;;;8.57;5.95;;;21.80;94.30;;;;;;4916495;28;20379;-88
2022/06/24 04:55:19;;;;;;;5.05;3.22;;;22.00;95.00;;;;;;4931224;28;20039;-87
2022/06/24 04:57:46;;;;;;;9.90;6.25;;;21.80;96.00;;;;;;4936847;28;20574;-89
2022/06/24 05:00:12;;;;;;;8.73;6.55;;;21.80;95.90;;;;;;4913171;28;20035;-89
2022/06/24 05:02:38;;;;;;;4.45;2.70;;;21.80;95.50;;;;;;4915856;28;20098;-89
2022/06/24 05:05:05;;;;;;;5.93;5.03;;;21.80;95.50;;;;;;4915511;28;20043;-90
2022/06/24 05:07:30;;;;;;;10.00;5.63;;;21.80;95.90;;;;;;4932822;29;20035;-89
2022/06/24 05:09:56;;;;;;;6.07;4.97;;;21.60;96.90;;;;;;4922564;28;20502;-89
2022/06/24 05:12:22;;;;;;;9.65;7.50;;;21.60;96.80;;;;;;4929149;28;20062;-90
2022/06/24 05:14:47;;;;;;;9.52;4.30;;;21.50;96.30;;;;;;4921988;28;20038;-89
2022/06/24 05:17:13;;;;;;;6.93;5.20;;;21.70;97.00;;;;;;4920561;28;20106;-89
2022/06/24 05:19:38;;;;;;;9.52;8.32;;;21.60;95.40;;;;;;4920678;28;20086;-89
2022/06/24 05:22:05;;;;;;;6.22;4.18;;;21.50;94.90;;;;;;4928254;29;20031;-89
2022/06/24 05:24:31;;;;;;;7.35;6.65;;;21.50;97.10;;;;;;4922596;28;20027;-90
2022/06/24 05:26:56;;;;;;;5.30;4.30;;;21.50;96.00;;;;;;4922639;29;20446;-90
2022/06/24 05:29:22;;;;;;;10.43;9.43;;;21.40;97.60;;;;;;4920651;28;20042;-89
2022/06/24 05:31:48;;;;;;;7.65;6.28;;;21.30;95.90;;;;;;4927982;28;20482;-90
2022/06/24 05:34:16;;;;;;;9.20;5.85;;;21.30;95.10;;;;;;4927215;28;20039;-90
2022/06/24 05:36:42;;;;;;;10.25;7.75;;;21.40;97.90;;;;;;4929217;28;20047;-90
2022/06/24 05:39:18;;;;;;;7.93;5.78;;;21.40;99.30;;;;;;4918659;29;20525;-91
2022/06/24 05:41:44;;;;;;;5.97;5.00;;;21.40;98.80;;;;;;4928683;28;20040;-93
2022/06/24 05:44:12;;;;;;;7.00;6.32;;;21.40;97.20;;;;;;4917803;28;20031;-93
2022/06/24 05:47:09;;;;;;;7.60;6.57;;;21.40;98.20;;;;;;4941893;28;20610;-95
2022/06/24 05:49:35;;;;;;;8.35;7.30;;;21.60;98.00;;;;;;4943005;28;20031;-94
2022/06/24 05:52:00;;;;;;;11.75;6.63;;;21.50;99.90;;;;;;4923616;28;20053;-93
2022/06/24 05:57:10;;;;;;;7.35;6.55;;;21.60;99.90;;;;;;4928687;28;20049;-92
2022/06/24 05:59:38;;;;;;;5.55;4.18;;;21.50;99.20;;;;;;4930893;28;20027;-92
2022/06/24 06:02:07;;;;;;;6.80;5.70;;;21.50;99.90;;;;;;4934452;28;20034;-91
2022/06/24 06:04:36;;;;;;;7.80;5.93;;;21.70;99.90;;;;;;4926826;28;20031;-95
2022/06/24 06:07:02;;;;;;;6.93;6.32;;;21.50;99.90;;;;;;4946426;28;20058;-95
2022/06/24 06:09:28;;;;;;;12.65;10.32;;;21.70;99.90;;;;;;4932986;28;20022;-91
2022/06/24 06:11:59;;;;;;;9.75;8.85;;;21.70;99.90;;;;;;4929037;28;20110;-91
2022/06/24 06:14:24;;;;;;;10.32;9.30;;;21.70;99.90;;;;;;4890218;29;20411;-91
2022/06/24 06:16:50;;;;;;;6.22;5.25;;;21.70;99.90;;;;;;4937943;28;20083;-90
2022/06/24 06:19:17;;;;;;;12.93;9.10;;;21.80;99.90;;;;;;4931519;28;20149;-90
2022/06/24 06:21:44;;;;;;;10.63;9.18;;;21.90;99.90;;;;;;4934558;28;20102;-91
2022/06/24 06:24:09;;;;;;;10.55;8.88;;;21.90;99.90;;;;;;4930275;28;20047;-91
2022/06/24 06:26:35;;;;;;;10.63;9.63;;;22.00;99.90;;;;;;4934409;28;20550;-90
2022/06/24 06:29:02;;;;;;;9.48;8.57;;;22.00;99.90;;;;;;4933389;28;20042;-90
2022/06/24 06:31:27;;;;;;;7.05;6.38;;;22.10;99.90;;;;;;4923952;28;20064;-90
2022/06/24 06:33:53;;;;;;;8.30;6.60;;;22.10;99.90;;;;;;4922451;28;20041;-91
2022/06/24 06:36:19;;;;;;;10.35;7.70;;;22.20;99.70;;;;;;4923647;28;20565;-91
2022/06/24 06:38:44;;;;;;;7.90;6.32;;;22.30;99.60;;;;;;4915596;28;20030;-91
2022/06/24 06:41:10;;;;;;;7.40;6.35;;;22.30;99.90;;;;;;4919440;28;20418;-90
2022/06/24 06:43:47;;;;;;;6.35;5.85;;;22.20;99.30;;;;;;4920820;28;20042;-91
2022/06/24 06:46:13;;;;;;;4.72;4.05;;;22.30;99.90;;;;;;4927201;29;20701;-91
2022/06/24 06:48:39;;;;;;;5.68;4.88;;;22.30;99.70;;;;;;4911374;28;20438;-89
2022/06/24 06:51:05;;;;;;;6.38;5.13;;;22.40;99.90;;;;;;4924663;28;20495;-90
2022/06/24 06:53:31;;;;;;;6.45;4.60;;;22.50;99.90;;;;;;4923904;28;20038;-91
2022/06/24 06:55:57;;;;;;;7.68;4.53;;;22.60;99.50;;;;;;4921546;28;21567;-90
2022/06/24 06:58:22;;;;;;;5.85;4.10;;;22.70;99.80;;;;;;4916362;28;20061;-91
2022/06/24 07:00:48;;;;;;;4.45;3.65;;;22.80;99.90;;;;;;4930319;28;20036;-90
2022/06/24 07:03:14;;;;;;;6.72;3.97;;;22.90;99.00;;;;;;4924414;28;20438;-90
2022/06/24 07:05:42;;;;;;;5.22;3.28;;;23.00;99.90;;;;;;4918327;28;20036;-91
2022/06/24 07:08:10;;;;;;;3.47;3.05;;;23.10;98.90;;;;;;4915903;28;20117;-90
2022/06/24 07:10:36;;;;;;;4.38;3.10;;;23.20;99.00;;;;;;4925358;28;20035;-90
2022/06/24 07:13:01;;;;;;;8.73;2.92;;;23.20;99.20;;;;;;4919198;28;20035;-91
2022/06/24 07:15:27;;;;;;;5.80;2.67;;;23.20;99.40;;;;;;4922665;28;20092;-89
2022/06/24 07:17:53;;;;;;;4.82;2.63;;;23.20;98.90;;;;;;4898812;29;20035;-90
2022/06/24 07:20:18;;;;;;;5.40;2.60;;;23.10;99.60;;;;;;4921667;28;20046;-90
2022/06/24 07:22:44;;;;;;;9.30;3.35;;;23.10;99.30;;;;;;4924169;28;20033;-90
2022/06/24 07:25:09;;;;;;;5.53;2.80;;;23.30;98.90;;;;;;4928272;28;20042;-89
2022/06/24 07:27:35;;;;;;;4.00;2.58;;;23.40;98.60;;;;;;4920049;28;20059;-89
2022/06/24 07:30:04;;;;;;;7.53;3.03;;;23.50;97.80;;;;;;4915611;28;20047;-90
2022/06/24 07:32:30;;;;;;;5.13;2.80;;;23.50;97.90;;;;;;4923491;28;20035;-87
2022/06/24 07:34:56;;;;;;;7.30;3.03;;;23.60;98.00;;;;;;4934132;28;20567;-88
2022/06/24 07:37:21;;;;;;;5.63;3.00;;;23.60;98.20;;;;;;4933539;28;20026;-89
2022/06/24 07:39:47;;;;;;;6.10;3.40;;;23.70;98.10;;;;;;4922577;28;20459;-88
2022/06/24 07:42:12;;;;;;;4.38;2.47;;;23.70;97.40;;;;;;4916253;28;20038;-88
2022/06/24 07:44:42;;;;;;;3.95;2.33;;;23.70;97.40;;;;;;4913612;28;20031;-90
2022/06/24 07:47:08;;;;;;;5.45;2.53;;;23.60;97.60;;;;;;4927915;29;20043;-88
2022/06/24 07:49:34;;;;;;;4.32;3.30;;;23.60;97.50;;;;;;4917968;28;20079;-89
2022/06/24 07:52:00;;;;;;;3.22;2.42;;;23.60;97.50;;;;;;4919919;28;20403;-89
2022/06/24 07:54:25;;;;;;;3.78;2.28;;;23.50;97.10;;;;;;4916904;28;20042;-90
2022/06/24 07:56:58;;;;;;;8.90;2.38;;;23.30;98.20;;;;;;4917574;28;20970;-90
2022/06/24 07:59:27;;;;;;;4.88;2.40;;;23.10;99.00;;;;;;4928722;28;20406;-94
2022/06/24 08:01:53;;;;;;;2.85;1.90;;;22.60;99.10;;;;;;4940860;28;20041;-93
2022/06/24 08:04:22;;;;;;;3.40;1.88;;;22.40;99.20;;;;;;4927939;28;20035;-92
2022/06/24 08:06:49;;;;;;;3.38;1.67;;;22.30;98.70;;;;;;4928869;28;20113;-94
2022/06/24 08:09:21;;;;;;;1.38;1.27;;;22.20;98.10;;;;;;4923085;28;20042;-92
2022/06/24 08:11:47;;;;;;;4.88;1.52;;;22.10;98.60;;;;;;4920290;28;20027;-94
2022/06/24 08:14:13;;;;;;;2.55;1.90;;;21.90;99.20;;;;;;4938659;28;20027;-93
2022/06/24 08:16:39;;;;;;;2.92;1.73;;;21.80;99.90;;;;;;4917717;28;20633;-93
2022/06/24 08:19:05;;;;;;;3.53;1.40;;;21.70;99.70;;;;;;4931030;28;20636;-93
2022/06/24 08:21:31;;;;;;;3.58;1.63;;;21.70;99.90;;;;;;4934117;28;20035;-93
2022/06/24 08:23:56;;;;;;;2.05;1.42;;;21.60;99.90;;;;;;4930181;28;20093;-93
2022/06/24 08:26:22;;;;;;;3.78;1.50;;;21.50;99.90;;;;;;4925071;28;20046;-95
2022/06/24 08:28:55;;;;;;;2.03;1.48;;;21.60;99.90;;;;;;4931427;28;20038;-94
2022/06/24 08:31:21;;;;;;;2.63;1.33;;;21.50;99.90;;;;;;4929098;28;20439;-93
2022/06/24 08:33:46;;;;;;;3.80;2.50;;;21.40;99.90;;;;;;4942570;28;20045;-93
2022/06/24 08:36:12;;;;;;;4.93;3.80;;;21.40;99.90;;;;;;4917941;28;20110;-92
2022/06/24 08:38:38;;;;;;;6.60;4.05;;;21.40;99.90;;;;;;4927462;28;20085;-92
2022/06/24 08:41:04;;;;;;;4.80;4.30;;;21.40;99.90;;;;;;4936932;28;20509;-93
2022/06/24 08:43:31;;;;;;;2.97;2.55;;;21.50;99.90;;;;;;4929659;28;20076;-92
2022/06/24 08:45:57;;;;;;;4.82;2.92;;;21.60;99.40;;;;;;4923228;28;20372;-92
2022/06/24 08:48:27;;;;;;;9.07;4.50;;;21.60;98.50;;;;;;4931132;28;20057;-94
2022/06/24 08:50:53;;;;;;;7.60;4.55;;;21.50;99.90;;;;;;4926257;28;20486;-90
2022/06/24 08:53:22;;;;;;;8.43;6.55;;;21.40;99.90;;;;;;4915635;29;20043;-89
2022/06/24 08:55:50;;;;;;;16.38;9.68;;;21.30;99.90;;;;;;4924769;28;20037;-89
2022/06/24 08:58:17;;;;;;;12.32;10.43;;;21.10;99.90;;;;;;4922268;28;20508;-90
2022/06/24 09:00:43;;;;;;;13.00;9.82;;;21.00;99.90;;;;;;4921927;28;20486;-90
2022/06/24 09:03:08;;;;;;;15.57;12.88;;;21.00;99.90;;;;;;4934476;28;20150;-89
2022/06/24 09:05:35;;;;;;;12.90;11.55;;;21.00;99.80;;;;;;4932728;28;20050;-89
2022/06/24 09:08:08;;;;;;;16.95;12.35;;;20.80;99.90;;;;;;4919594;28;20042;-89
2022/06/24 09:10:34;;;;;;;17.60;10.70;;;20.80;99.90;;;;;;4933130;28;20102;-90
2022/06/24 09:13:00;;;;;;;10.63;8.38;;;20.80;99.90;;;;;;4920465;28;20039;-88
2022/06/24 09:15:25;;;;;;;10.05;8.55;;;20.80;99.80;;;;;;4920098;28;20088;-90
2022/06/24 09:17:51;;;;;;;13.80;11.57;;;20.70;99.90;;;;;;4911943;28;20042;-90
2022/06/24 09:20:21;;;;;;;13.43;9.02;;;20.70;99.90;;;;;;4935250;28;20116;-90
2022/06/24 09:22:47;;;;;;;6.80;5.68;;;20.60;99.90;;;;;;4922564;28;20039;-89
2022/06/24 09:25:13;;;;;;;9.63;6.70;;;20.60;99.90;;;;;;4926932;28;20035;-90
2022/06/24 09:27:47;;;;;;;6.93;5.22;;;20.50;99.90;;;;;;4911057;28;20062;-91
2022/06/24 09:30:15;;;;;;;6.22;5.57;;;20.50;99.90;;;;;;4936389;28;20411;-92
2022/06/24 09:32:51;;;;;;;5.55;3.92;;;20.40;99.90;;;;;;4926851;28;20060;-92
2022/06/24 09:35:17;;;;;;;5.10;3.95;;;20.30;99.90;;;;;;4918895;28;20066;-91
2022/06/24 09:37:46;;;;;;;5.07;3.97;;;20.30;99.90;;;;;;4925483;28;20050;-93
2022/06/24 09:40:15;;;;;;;7.20;4.45;;;20.30;99.90;;;;;;4936319;28;20545;-92
2022/06/24 09:42:41;;;;;;;4.80;4.03;;;20.40;99.90;;;;;;4946636;28;20095;-92
2022/06/24 09:45:07;;;;;;;7.40;5.25;;;20.30;99.90;;;;;;4931357;28;20423;-93
2022/06/24 09:47:39;;;;;;;5.88;4.72;;;20.30;99.90;;;;;;4918693;28;20085;-94
2022/06/24 09:50:05;;;;;;;4.75;3.95;;;20.40;99.90;;;;;;4924891;28;20487;-93
2022/06/24 09:52:31;;;;;;;4.88;4.07;;;20.40;99.90;;;;;;4928210;28;20192;-93
2022/06/24 09:54:56;;;;;;;7.70;2.95;;;20.60;99.90;;;;;;4928707;29;20052;-93
2022/06/24 09:57:22;;;;;;;5.07;4.03;;;20.60;99.90;;;;;;4923961;28;20034;-92
2022/06/24 10:02:34;;;;;;;2.70;2.33;;;20.70;99.90;;;;;;4944906;28;20041;-94
2022/06/24 10:05:01;;;;;;;3.75;3.05;;;20.70;99.90;;;;;;4927173;28;20031;-95
2022/06/24 10:07:26;;;;;;;3.45;2.85;;;20.70;99.90;;;;;;4920713;28;20027;-93
2022/06/24 10:09:52;;;;;;;7.80;3.03;;;20.90;99.90;;;;;;4937283;28;20031;-94
2022/06/24 10:12:21;;;;;;;3.20;2.53;;;21.00;99.90;;;;;;4931639;28;20038;-92
2022/06/24 10:14:48;;;;;;;5.13;3.10;;;21.20;99.90;;;;;;4937541;28;20042;-93
2022/06/24 10:17:14;;;;;;;3.58;2.30;;;21.50;99.90;;;;;;4929327;28;20081;-93
2022/06/24 10:19:39;;;;;;;4.47;2.08;;;21.70;99.90;;;;;;4923377;28;20031;-94
2022/06/24 10:22:05;;;;;;;3.53;2.47;;;22.00;99.90;;;;;;4921472;28;20033;-93
2022/06/24 10:24:39;;;;;;;4.18;2.72;;;22.40;99.90;;;;;;4928513;28;20053;-91
2022/06/24 10:27:04;;;;;;;3.47;2.47;;;22.70;99.90;;;;;;4926028;28;20042;-92
2022/06/24 10:29:32;;;;;;;2.88;2.28;;;23.20;99.90;;;;;;4917101;28;20039;-92
2022/06/24 10:31:59;;;;;;;3.25;2.33;;;23.70;99.90;;;;;;4920935;28;20054;-94
2022/06/24 10:34:29;;;;;;;4.22;2.00;;;24.10;99.90;;;;;;4917108;28;20077;-92
2022/06/24 10:37:22;;;;;;;4.13;2.03;;;24.40;99.90;;;;;;4943093;28;20037;-93
2022/06/24 10:39:58;;;;;;;4.13;2.58;;;24.90;99.90;;;;;;4933724;28;20420;-94
2022/06/24 10:42:24;;;;;;;;;;;25.30;99.90;;;;;;4924557;28;20035;-92
2022/06/24 10:44:51;;;;;;;3.67;2.05;;;25.40;99.90;;;;;;4955133;28;19914;-92
2022/06/24 10:47:27;;;;;;;2.30;1.83;;;25.70;99.90;;;;;;4941236;28;20054;-95
2022/06/24 10:49:56;;;;;;;;;;;25.80;99.90;;;;;;4938592;28;20130;-92
2022/06/24 10:52:42;;;;;;;2.80;2.40;;;26.30;99.90;;;;;;4959875;28;20370;-93
2022/06/24 10:55:29;;;;;;;3.85;2.60;;;26.60;99.90;;;;;;4941096;28;20049;-94
2022/06/24 10:58:08;;;;;;;5.45;3.70;;;26.50;98.40;;;;;;4954181;28;20031;-92
2022/06/24 11:00:37;;;;;;;3.30;2.85;;;27.00;99.90;;;;;;4905709;28;20398;-91
2022/06/24 11:03:37;;;;;;;7.95;5.63;;;27.20;99.00;;;;;;4954870;28;20034;-94
2022/06/24 11:06:02;;;;;;;7.55;5.57;;;27.60;99.60;;;;;;4608058;23;10001494;-78
2022/06/24 11:08:29;;;;;;;5.95;5.43;;;27.90;99.90;;;;;;4937160;28;20054;-79
2022/06/24 11:10:54;;;;;;;9.57;8.57;;;28.20;98.60;;;;;;4936360;28;20035;-79
2022/06/24 11:13:22;;;;;;;10.90;8.50;;;28.30;96.20;;;;;;4938673;28;20027;-79
2022/06/24 11:15:54;;;;;;;10.43;8.30;;;28.50;93.60;;;;;;4935296;28;20034;-79
2022/06/24 11:18:30;;;;;;;10.48;8.30;;;28.80;94.90;;;;;;4936495;28;20814;-79
2022/06/24 11:21:03;;;;;;;8.32;7.53;;;29.50;93.40;;;;;;4935571;28;20101;-77
2022/06/24 11:23:30;;;;;;;9.30;7.85;;;30.20;95.30;;;;;;4951738;28;20034;-80
2022/06/24 11:26:02;;;;;;;11.48;7.82;;;30.40;93.90;;;;;;4933433;28;20039;-81
2022/06/24 11:28:30;;;;;;;8.35;7.45;;;30.50;94.20;;;;;;4953869;28;20403;-78
2022/06/24 11:31:12;;;;;;;7.57;6.40;;;30.80;94.20;;;;;;4950162;28;20134;-78
2022/06/24 11:33:37;;;;;;;8.13;6.10;;;31.20;94.20;;;;;;4917800;28;20085;-78
2022/06/24 11:36:03;;;;;;;5.93;5.43;;;31.70;93.40;;;;;;4921069;28;20486;-79
2022/06/24 11:38:28;;;;;;;11.63;6.45;;;32.20;92.50;;;;;;4952757;28;20395;-80
2022/06/24 11:40:54;;;;;;;6.75;5.30;;;32.20;88.10;;;;;;4918465;28;20044;-80
2022/06/24 11:43:19;;;;;;;5.47;4.85;;;32.20;87.30;;;;;;4941270;28;20030;-83
2022/06/24 11:45:48;;;;;;;6.45;5.03;;;32.60;84.90;;;;;;4922666;28;20035;-81
2022/06/24 11:48:21;;;;;;;4.50;4.10;;;32.60;87.60;;;;;;4917946;28;20039;-80
2022/06/24 11:50:47;;;;;;;5.32;3.60;;;32.80;85.00;;;;;;4949555;28;20030;-79
2022/06/24 11:53:12;;;;;;;3.42;3.13;;;32.70;84.50;;;;;;4970974;28;20031;-79
2022/06/24 11:55:40;;;;;;;3.30;2.65;;;32.70;81.80;;;;;;4941452;28;20041;-81
2022/06/24 11:58:06;;;;;;;3.90;2.83;;;33.30;84.00;;;;;;4928761;28;20041;-81
2022/06/24 12:00:37;;;;;;;4.65;2.92;;;33.70;83.80;;;;;;4938418;28;20039;-81
2022/06/24 12:03:10;;;;;;;3.60;3.30;;;34.00;80.40;;;;;;4945133;28;20035;-81
2022/06/24 12:05:48;;;;;;;4.63;2.63;;;34.10;79.90;;;;;;4943868;28;20035;-83
2022/06/24 12:08:15;;;;;;;3.78;2.30;;;34.10;76.60;;;;;;4928025;28;20035;-82
2022/06/24 12:10:51;;;;;;;2.78;2.58;;;34.30;77.30;;;;;;4943420;28;20041;-82
2022/06/24 12:13:32;;;;;;;2.33;2.13;;;34.60;74.40;;;;;;4938921;28;20049;-82
2022/06/24 12:15:58;;;;;;;2.42;2.00;;;34.60;74.80;;;;;;4955678;28;20073;-82
2022/06/24 12:18:24;;;;;;;2.90;2.42;;;34.70;69.10;;;;;;4942302;28;20031;-83
2022/06/24 12:21:03;;;;;;;2.30;1.92;;;35.30;74.60;;;;;;4960694;28;20047;-82
2022/06/24 12:23:36;;;;;;;3.03;2.10;;;35.50;69.50;;;;;;4954763;28;20066;-81
2022/06/24 12:26:18;;;;;;;3.67;2.33;;;36.00;68.10;;;;;;4947883;28;20177;-81
2022/06/24 12:28:44;;;;;;;2.92;2.03;;;36.10;67.10;;;;;;4946973;28;20427;-81
2022/06/24 12:31:11;;;;;;;3.38;2.25;;;35.90;65.60;;;;;;4927257;28;20046;-81
2022/06/24 12:33:38;;;;;;;4.25;1.88;;;35.90;65.30;;;;;;4941220;28;20030;-81
2022/06/24 12:36:14;;;;;;;1.80;1.70;;;36.10;64.80;;;;;;4944928;28;20062;-81
2022/06/24 12:39:07;;;;;;;2.70;2.50;;;36.10;62.80;;;;;;4946158;28;20281;-81
2022/06/24 12:41:48;;;;;;;2.80;1.90;;;35.70;64.20;;;;;;4956611;28;20027;-81
2022/06/24 12:44:15;;;;;;;1.73;1.63;;;35.60;62.50;;;;;;4941414;28;20031;-79
2022/06/24 12:50:35;;;;;;;2.33;1.98;;;35.40;63.70;;;;;;4925959;28;20505;-80
2022/06/24 12:52:36;;;;;;;2.65;2.28;;;35.80;62.00;;;;;;4960245;28;20134;-81
2022/06/24 12:55:03;;;;;;;2.72;1.90;;;36.10;61.60;;;;;;4944821;28;20035;-81
2022/06/24 12:57:29;;;;;;;1.98;1.88;;;36.10;59.00;;;;;;4940360;28;20403;-81
2022/06/24 12:59:55;;;;;;;3.00;1.83;;;36.30;59.20;;;;;;4959348;28;20027;-80